createdAt,value
2019-05-29T00:00:34.818Z,85.12
2019-05-29T00:01:34.691Z,85.02
2019-05-29T00:02:34.714Z,85.69
2019-05-29T00:03:34.729Z,85.69
2019-05-29T00:04:34.506Z,86.07
2019-05-29T00:05:34.769Z,85.88
2019-05-29T00:06:34.787Z,86.16
2019-05-29T00:07:34.811Z,86.45
2019-05-29T00:08:34.855Z,87.02
2019-05-29T00:09:34.852Z,86.36
2019-05-29T00:10:34.868Z,86.26
2019-05-29T00:11:49.551Z,87.02
2019-05-29T00:12:34.907Z,86.65
2019-05-29T00:13:34.949Z,87.36
2019-05-29T00:14:34.947Z,86.98
2019-05-29T00:15:34.973Z,86.88
2019-05-29T00:16:34.984Z,87.27
2019-05-29T00:18:35.023Z,87.27
2019-05-29T00:19:35.045Z,86.88
2019-05-29T00:20:35.065Z,87.55
2019-05-29T00:21:35.090Z,87.55
2019-05-29T00:22:35.102Z,87.17
2019-05-29T00:24:35.141Z,87.07
2019-05-29T00:25:35.164Z,86.88
2019-05-29T00:26:35.186Z,86.98
2019-05-29T00:27:49.864Z,86.98
2019-05-29T00:28:35.228Z,86.88
2019-05-29T00:29:35.243Z,87.07
2019-05-29T00:30:35.260Z,86.98
2019-05-29T00:31:35.279Z,87.07
2019-05-29T00:33:35.070Z,87.36
2019-05-29T00:34:35.339Z,86.79
2019-05-29T00:35:35.356Z,87.07
2019-05-29T00:37:35.396Z,86.79
2019-05-29T00:38:35.416Z,86.22
2019-05-29T00:40:35.460Z,86.41
2019-05-29T00:41:35.477Z,86.22
2019-05-29T00:42:35.495Z,86.41
2019-05-29T00:43:50.183Z,86.51
2019-05-29T00:44:37.157Z,86.41
2019-05-29T00:45:35.560Z,86.22
2019-05-29T00:46:35.570Z,87.07
2019-05-29T00:47:35.602Z,86.6
2019-05-29T00:48:35.361Z,86.88
2019-05-29T00:49:35.634Z,86.6
2019-05-29T00:50:35.647Z,87.07
2019-05-29T00:51:35.668Z,86.98
2019-05-29T00:52:35.687Z,86.79
2019-05-29T00:53:35.704Z,86.41
2019-05-29T00:55:35.744Z,86.88
2019-05-29T00:56:35.764Z,86.88
2019-05-29T00:57:35.785Z,86.51
2019-05-29T00:58:50.470Z,86.79
2019-05-29T00:59:35.823Z,86.6
2019-05-29T01:00:35.842Z,86.98
2019-05-29T01:01:35.947Z,86.88
2019-05-29T01:02:35.883Z,86.79
2019-05-29T01:03:35.902Z,86.51
2019-05-29T01:04:35.919Z,86.51
2019-05-29T01:05:35.940Z,87.07
2019-05-29T01:06:35.966Z,86.51
2019-05-29T01:07:35.977Z,86.69
2019-05-29T01:08:36.006Z,86.98
2019-05-29T01:09:36.029Z,86.79
2019-05-29T01:10:36.036Z,86.41
2019-05-29T01:11:36.055Z,87.07
2019-05-29T01:12:36.076Z,87.17
2019-05-29T01:13:36.095Z,86.41
2019-05-29T01:14:51.567Z,86.69
2019-05-29T01:15:36.132Z,86.51
2019-05-29T01:16:36.154Z,86.6
2019-05-29T01:17:36.183Z,86.22
2019-05-29T01:18:36.192Z,86.69
2019-05-29T01:19:36.210Z,86.6
2019-05-29T01:20:36.229Z,86.32
2019-05-29T01:21:36.249Z,86.98
2019-05-29T01:22:36.293Z,86.79
2019-05-29T01:23:36.289Z,86.6
2019-05-29T01:26:36.350Z,86.69
2019-05-29T01:27:36.376Z,86.69
2019-05-29T01:28:36.388Z,86.51
2019-05-29T01:29:36.403Z,86.51
2019-05-29T01:30:51.646Z,86.41
2019-05-29T01:31:36.447Z,86.41
2019-05-29T01:32:36.463Z,86.98
2019-05-29T01:33:36.479Z,87.17
2019-05-29T01:34:36.500Z,86.98
2019-05-29T01:35:36.521Z,86.79
2019-05-29T01:36:36.539Z,87.17
2019-05-29T01:37:36.555Z,86.98
2019-05-29T01:38:36.575Z,86.79
2019-05-29T01:39:36.654Z,87.36
2019-05-29T01:40:36.613Z,88.03
2019-05-29T01:41:36.640Z,86.98
2019-05-29T01:42:36.654Z,87.17
2019-05-29T01:43:36.672Z,86.98
2019-05-29T01:44:36.691Z,86.69
2019-05-29T01:45:36.711Z,86.79
2019-05-29T01:46:51.393Z,87.46
2019-05-29T01:47:36.754Z,86.88
2019-05-29T01:48:36.772Z,86.88
2019-05-29T01:49:36.789Z,86.98
2019-05-29T01:50:36.816Z,86.6
2019-05-29T01:51:36.825Z,87.17
2019-05-29T01:52:36.848Z,87.07
2019-05-29T01:53:36.864Z,86.88
2019-05-29T01:54:36.885Z,86.88
2019-05-29T01:55:36.900Z,87.36
2019-05-29T01:56:36.919Z,87.07
2019-05-29T01:58:36.959Z,87.07
2019-05-29T02:00:36.997Z,87.55
2019-05-29T02:01:37.018Z,87.74
2019-05-29T02:02:51.699Z,88.22
2019-05-29T02:03:37.090Z,87.84
2019-05-29T02:04:37.083Z,88.31
2019-05-29T02:05:37.093Z,88.6
2019-05-29T02:06:37.112Z,88.51
2019-05-29T02:07:37.136Z,88.79
2019-05-29T02:08:37.149Z,88.98
2019-05-29T02:09:37.170Z,88.89
2019-05-29T02:10:37.194Z,89.17
2019-05-29T02:11:37.208Z,89.55
2019-05-29T02:12:37.228Z,89.36
2019-05-29T02:13:37.248Z,89.46
2019-05-29T02:14:37.267Z,89.17
2019-05-29T02:15:37.283Z,89.36
2019-05-29T02:16:37.304Z,89.46
2019-05-29T02:17:37.417Z,90.12
2019-05-29T02:18:52.005Z,89.94
2019-05-29T02:19:37.360Z,90.41
2019-05-29T02:20:37.411Z,90.5
2019-05-29T02:21:37.405Z,89.84
2019-05-29T02:22:37.416Z,90.5
2019-05-29T02:23:37.434Z,90.41
2019-05-29T02:24:37.461Z,90.41
2019-05-29T02:25:37.474Z,90.7
2019-05-29T02:26:37.493Z,90.7
2019-05-29T02:27:37.514Z,90.79
2019-05-29T02:28:37.531Z,90.6
2019-05-29T02:29:37.641Z,90.79
2019-05-29T02:30:37.572Z,90.89
2019-05-29T02:32:37.609Z,90.89
2019-05-29T02:33:52.292Z,90.89
2019-05-29T02:34:37.659Z,90.98
2019-05-29T02:35:37.680Z,91.46
2019-05-29T02:36:37.688Z,90.89
2019-05-29T02:38:37.476Z,91.36
2019-05-29T02:39:37.741Z,91.46
2019-05-29T02:40:37.760Z,91.74
2019-05-29T02:41:37.781Z,91.36
2019-05-29T02:42:37.797Z,91.36
2019-05-29T02:43:37.585Z,92.08
2019-05-29T02:44:37.857Z,91.46
2019-05-29T02:45:55.465Z,91.79
2019-05-29T02:46:37.877Z,91.7
2019-05-29T02:47:37.901Z,91.84
2019-05-29T02:48:37.915Z,91.84
2019-05-29T02:49:37.686Z,91.7
2019-05-29T02:50:37.950Z,91.89
2019-05-29T02:51:37.974Z,91.99
2019-05-29T02:52:37.992Z,92.41
2019-05-29T02:54:38.026Z,92.22
2019-05-29T02:56:42.128Z,92.36
2019-05-29T02:57:38.091Z,92.36
2019-05-29T02:58:38.114Z,92.03
2019-05-29T02:59:38.133Z,91.79
2019-05-29T03:00:38.143Z,92.6
2019-05-29T03:01:38.172Z,92.55
2019-05-29T03:02:38.186Z,92.79
2019-05-29T03:03:42.188Z,92.41
2019-05-29T03:04:38.236Z,91.84
2019-05-29T03:05:52.899Z,92.89
2019-05-29T03:07:38.277Z,92.55
2019-05-29T03:09:38.312Z,92.36
2019-05-29T03:10:38.338Z,92.65
2019-05-29T03:11:38.353Z,92.74
2019-05-29T03:12:38.378Z,92.36
2019-05-29T03:13:38.140Z,92.94
2019-05-29T03:14:38.169Z,92.89
2019-05-29T03:15:38.426Z,92.84
2019-05-29T03:16:38.447Z,93.03
2019-05-29T03:17:38.224Z,92.98
2019-05-29T03:18:38.493Z,92.98
2019-05-29T03:19:38.505Z,92.98
2019-05-29T03:20:38.523Z,93.08
2019-05-29T03:21:53.205Z,92.98
2019-05-29T03:22:38.590Z,92.79
2019-05-29T03:23:39.060Z,92.6
2019-05-29T03:24:38.364Z,93.17
2019-05-29T03:25:39.481Z,93.17
2019-05-29T03:26:40.677Z,93.08
2019-05-29T03:27:40.379Z,92.98
2019-05-29T03:28:40.546Z,92.98
2019-05-29T03:29:40.977Z,93.17
2019-05-29T03:30:47.349Z,92.98
2019-05-29T03:31:48.733Z,92.89
2019-05-29T03:32:48.936Z,93.17
2019-05-29T03:33:50.727Z,92.98
2019-05-29T03:34:48.105Z,92.6
2019-05-29T03:35:48.920Z,92.89
2019-05-29T03:36:49.340Z,92.89
2019-05-29T03:37:53.506Z,93.17
2019-05-29T03:38:38.866Z,93.17
2019-05-29T03:39:38.891Z,92.98
2019-05-29T03:40:38.909Z,93.08
2019-05-29T03:41:39.189Z,93.27
2019-05-29T03:42:39.359Z,92.5
2019-05-29T03:43:38.927Z,92.89
2019-05-29T03:44:38.996Z,92.89
2019-05-29T03:45:40.483Z,92.98
2019-05-29T03:46:47.035Z,92.98
2019-05-29T03:47:39.733Z,93.08
2019-05-29T03:48:40.912Z,92.98
2019-05-29T03:49:39.836Z,92.98
2019-05-29T03:50:40.713Z,92.89
2019-05-29T03:51:41.299Z,92.98
2019-05-29T03:52:41.174Z,92.89
2019-05-29T03:53:53.812Z,92.98
2019-05-29T03:56:39.228Z,92.98
2019-05-29T03:57:40.641Z,93.08
2019-05-29T03:58:40.207Z,92.98
2019-05-29T03:59:39.898Z,93.37
2019-05-29T04:00:49.178Z,92.98
2019-05-29T04:01:39.893Z,92.89
2019-05-29T04:02:40.797Z,93.46
2019-05-29T04:03:40.708Z,92.69
2019-05-29T04:04:40.743Z,93.46
2019-05-29T04:05:40.521Z,93.46
2019-05-29T04:06:40.050Z,93.17
2019-05-29T04:07:40.609Z,93.08
2019-05-29T04:08:54.100Z,93.17
2019-05-29T04:09:39.824Z,92.98
2019-05-29T04:10:41.857Z,93.03
2019-05-29T04:11:40.551Z,93.22
2019-05-29T04:12:40.517Z,92.89
2019-05-29T04:13:40.898Z,92.69
2019-05-29T04:15:41.188Z,93.08
2019-05-29T04:17:00.964Z,92.98
2019-05-29T04:17:40.462Z,93.03
2019-05-29T04:18:40.633Z,93.32
2019-05-29T04:19:41.131Z,93.03
2019-05-29T04:20:41.393Z,92.93
2019-05-29T04:21:41.189Z,92.08
2019-05-29T04:22:40.791Z,92.08
2019-05-29T04:23:40.765Z,91.98
2019-05-29T04:24:40.714Z,92.17
2019-05-29T04:25:44.957Z,92.17
2019-05-29T04:26:40.384Z,92.65
2019-05-29T04:27:40.877Z,92.17
2019-05-29T04:28:41.522Z,92.36
2019-05-29T04:29:40.870Z,91.98
2019-05-29T04:30:41.699Z,91.93
2019-05-29T04:31:40.836Z,91.88
2019-05-29T04:32:41.142Z,92.17
2019-05-29T04:33:41.382Z,91.64
2019-05-29T04:34:41.988Z,91.64
2019-05-29T04:35:42.018Z,91.55
2019-05-29T04:36:41.534Z,91.46
2019-05-29T04:37:42.216Z,91.36
2019-05-29T04:38:42.169Z,91.17
2019-05-29T04:39:41.514Z,91.07
2019-05-29T04:40:54.717Z,91.17
2019-05-29T04:41:41.707Z,90.88
2019-05-29T04:42:42.422Z,90.59
2019-05-29T04:43:41.789Z,90.59
2019-05-29T04:44:42.770Z,90.41
2019-05-29T04:45:42.561Z,90.5
2019-05-29T04:46:41.447Z,89.5
2019-05-29T04:47:41.957Z,88.92
2019-05-29T04:48:42.744Z,88.78
2019-05-29T04:49:42.144Z,88.4
2019-05-29T04:50:42.698Z,87.73
2019-05-29T04:51:42.183Z,88.26
2019-05-29T04:52:42.458Z,88.35
2019-05-29T04:53:41.990Z,88.45
2019-05-29T04:54:42.536Z,89.12
2019-05-29T04:55:41.409Z,89.12
2019-05-29T04:56:55.041Z,88.92
2019-05-29T04:57:41.727Z,88.83
2019-05-29T04:58:41.535Z,89.12
2019-05-29T04:59:41.678Z,88.54
2019-05-29T05:00:56.021Z,89.02
2019-05-29T05:01:41.665Z,89.45
2019-05-29T05:02:41.789Z,89.93
2019-05-29T05:03:41.735Z,89.83
2019-05-29T05:04:41.788Z,90.41
2019-05-29T05:05:41.933Z,89.74
2019-05-29T05:06:41.852Z,89.83
2019-05-29T05:08:42.087Z,90.31
2019-05-29T05:09:42.001Z,90.17
2019-05-29T05:10:41.194Z,89.4
2019-05-29T05:11:40.684Z,89.97
2019-05-29T05:12:55.386Z,89.45
2019-05-29T05:13:40.723Z,89.36
2019-05-29T05:14:40.743Z,89.36
2019-05-29T05:15:40.776Z,89.69
2019-05-29T05:17:40.808Z,90.22
2019-05-29T05:18:40.824Z,89.4
2019-05-29T05:19:40.846Z,89.78
2019-05-29T05:20:40.929Z,88.83
2019-05-29T05:21:40.885Z,88.45
2019-05-29T05:22:41.131Z,88.16
2019-05-29T05:23:40.930Z,87.73
2019-05-29T05:24:45.101Z,87.54
2019-05-29T05:25:41.178Z,87.15
2019-05-29T05:26:40.990Z,87.15
2019-05-29T05:27:41.008Z,87.3
2019-05-29T05:28:55.699Z,86.87
2019-05-29T05:29:41.055Z,86.58
2019-05-29T05:30:41.087Z,85.67
2019-05-29T05:31:41.094Z,85.38
2019-05-29T05:32:41.411Z,83.51
2019-05-29T05:33:41.275Z,81.74
2019-05-29T05:34:41.234Z,79.93
2019-05-29T05:36:41.318Z,75.12
2019-05-29T05:37:41.325Z,73.97
2019-05-29T05:38:41.342Z,72.58
2019-05-29T05:39:41.503Z,69.64
2019-05-29T05:40:44.245Z,67.47
2019-05-29T05:41:41.443Z,67.28
2019-05-29T05:42:41.425Z,68.14
2019-05-29T05:43:56.023Z,69.35
2019-05-29T05:44:41.512Z,70.18
2019-05-29T05:45:41.657Z,71.04
2019-05-29T05:46:41.644Z,71.42
2019-05-29T05:47:57.894Z,69.8
2019-05-29T05:48:41.822Z,68.68
2019-05-29T05:49:41.963Z,68.4
2019-05-29T05:50:41.855Z,68.01
2019-05-29T05:51:45.566Z,67.15
2019-05-29T05:52:41.902Z,65.65
2019-05-29T05:53:41.977Z,63.57
2019-05-29T05:54:41.978Z,63.38
2019-05-29T05:55:42.225Z,63.45
2019-05-29T05:56:42.152Z,63.64
2019-05-29T05:57:42.179Z,62.71
2019-05-29T05:58:42.537Z,61.94
2019-05-29T05:59:42.317Z,59.89
2019-05-29T06:01:42.491Z,57.45
2019-05-29T06:02:42.567Z,54.91
2019-05-29T06:03:43.049Z,53.4
2019-05-29T06:04:42.461Z,53.21
2019-05-29T06:05:42.680Z,53.25
2019-05-29T06:06:42.692Z,53.19
2019-05-29T06:07:42.891Z,51.41
2019-05-29T06:08:42.636Z,50.18
2019-05-29T06:09:42.880Z,49.79
2019-05-29T06:10:42.711Z,50.23
2019-05-29T06:11:42.806Z,52
2019-05-29T06:12:43.026Z,52.68
2019-05-29T06:13:42.964Z,54
2019-05-29T06:14:43.073Z,53.52
2019-05-29T06:15:56.832Z,53.97
2019-05-29T06:16:43.116Z,53.01
2019-05-29T06:17:57.254Z,54.04
2019-05-29T06:18:43.282Z,54.68
2019-05-29T06:19:43.622Z,54.23
2019-05-29T06:20:43.422Z,54.58
2019-05-29T06:21:43.330Z,54.75
2019-05-29T06:22:43.756Z,54.56
2019-05-29T06:23:43.846Z,55.11
2019-05-29T06:24:43.689Z,54.82
2019-05-29T06:25:44.308Z,54.21
2019-05-29T06:26:43.494Z,52.95
2019-05-29T06:27:43.817Z,52.05
2019-05-29T06:28:43.711Z,51.47
2019-05-29T06:29:43.714Z,51.18
2019-05-29T06:30:45.128Z,51.28
2019-05-29T06:31:57.238Z,52.31
2019-05-29T06:32:43.945Z,52.95
2019-05-29T06:33:44.217Z,53.72
2019-05-29T06:34:43.999Z,55.78
2019-05-29T06:35:44.072Z,55.78
2019-05-29T06:36:44.114Z,56.32
2019-05-29T06:37:44.086Z,55.62
2019-05-29T06:38:44.647Z,55.04
2019-05-29T06:39:44.163Z,54.49
2019-05-29T06:40:44.437Z,53.36
2019-05-29T06:41:44.304Z,52.08
2019-05-29T06:42:43.973Z,51.88
2019-05-29T06:43:44.094Z,53.91
2019-05-29T06:44:48.347Z,54.66
2019-05-29T06:45:43.890Z,55.42
2019-05-29T06:46:45.127Z,55.13
2019-05-29T06:47:57.651Z,54.49
2019-05-29T06:48:59.974Z,53.91
2019-05-29T06:49:44.180Z,54.78
2019-05-29T06:50:44.001Z,54.58
2019-05-29T06:51:43.757Z,54.66
2019-05-29T06:52:43.826Z,54.94
2019-05-29T06:53:44.298Z,54.58
2019-05-29T06:54:44.440Z,54.85
2019-05-29T06:55:44.603Z,54.68
2019-05-29T06:56:44.155Z,53.66
2019-05-29T06:57:44.937Z,53.63
2019-05-29T06:58:44.565Z,53.46
2019-05-29T06:59:44.836Z,52.31
2019-05-29T07:00:44.823Z,51.69
2019-05-29T07:01:44.169Z,51.11
2019-05-29T07:02:44.717Z,49.99
2019-05-29T07:04:10.939Z,49.05
2019-05-29T07:04:44.284Z,49.72
2019-05-29T07:05:53.190Z,48.47
2019-05-29T07:06:44.498Z,48.08
2019-05-29T07:07:44.837Z,48.38
2019-05-29T07:08:48.681Z,47.44
2019-05-29T07:09:43.573Z,46.78
2019-05-29T07:10:45.072Z,47.17
2019-05-29T07:11:43.783Z,46.11
2019-05-29T07:12:44.847Z,45.84
2019-05-29T07:13:49.597Z,45.36
2019-05-29T07:14:44.829Z,44.32
2019-05-29T07:15:45.706Z,44.62
2019-05-29T07:16:56.111Z,45.17
2019-05-29T07:17:44.978Z,45.27
2019-05-29T07:20:23.132Z,44.57
2019-05-29T07:21:08.494Z,45.7
2019-05-29T07:22:08.522Z,46.55
2019-05-29T07:23:08.305Z,47.24
2019-05-29T07:24:08.581Z,47.49
2019-05-29T07:25:08.611Z,48.64
2019-05-29T07:26:08.637Z,49.26
2019-05-29T07:27:13.222Z,48.35
2019-05-29T07:28:08.445Z,46.74
2019-05-29T07:29:10.763Z,47
2019-05-29T07:30:08.752Z,46.84
2019-05-29T07:31:23.442Z,47.49
2019-05-29T07:32:08.556Z,47.92
2019-05-29T07:33:08.585Z,48.33
2019-05-29T07:34:08.861Z,47.2
2019-05-29T07:36:08.919Z,47.08
2019-05-29T07:37:08.947Z,46.59
2019-05-29T07:38:08.724Z,47.34
2019-05-29T07:39:09.000Z,47.25
2019-05-29T07:40:09.029Z,46.53
2019-05-29T07:41:09.064Z,45.13
2019-05-29T07:42:09.085Z,44.48
2019-05-29T07:43:08.877Z,44.35
2019-05-29T07:44:09.151Z,44.07
2019-05-29T07:45:09.175Z,43.15
2019-05-29T07:46:08.952Z,43.34
2019-05-29T07:47:23.893Z,42.49
2019-05-29T07:48:09.266Z,43.49
2019-05-29T07:49:09.306Z,44.24
2019-05-29T07:50:09.316Z,45.37
2019-05-29T07:51:09.887Z,45.18
2019-05-29T07:52:09.373Z,45.76
2019-05-29T07:54:09.492Z,47.51
2019-05-29T07:55:09.465Z,47.34
2019-05-29T07:56:24.606Z,45.06
2019-05-29T07:57:09.513Z,43.95
2019-05-29T07:58:09.541Z,44.05
2019-05-29T07:59:09.587Z,44.41
2019-05-29T08:00:09.592Z,42.55
2019-05-29T08:01:15.892Z,41.99
2019-05-29T08:02:09.649Z,43.4
2019-05-29T08:03:24.352Z,43.3
2019-05-29T08:04:09.710Z,44.43
2019-05-29T08:05:09.739Z,44.24
2019-05-29T08:06:09.869Z,44.07
2019-05-29T08:08:09.819Z,42.4
2019-05-29T08:09:09.852Z,42.3
2019-05-29T08:10:09.880Z,40.76
2019-05-29T08:11:09.903Z,40.8
2019-05-29T08:12:09.935Z,39.97
2019-05-29T08:13:09.973Z,39.39
2019-05-29T08:14:09.995Z,39.09
2019-05-29T08:15:10.016Z,39.18
2019-05-29T08:16:10.045Z,40.66
2019-05-29T08:17:10.081Z,43.01
2019-05-29T08:18:24.819Z,45.39
2019-05-29T08:19:10.356Z,44.82
2019-05-29T08:20:10.586Z,46.12
2019-05-29T08:21:10.185Z,46.67
2019-05-29T08:22:10.213Z,48.47
2019-05-29T08:23:10.241Z,49.12
2019-05-29T08:24:10.267Z,49.31
2019-05-29T08:25:10.297Z,50.34
2019-05-29T08:26:10.321Z,50.24
2019-05-29T08:27:10.349Z,49.57
2019-05-29T08:28:10.409Z,49.69
2019-05-29T08:31:10.455Z,51.01
2019-05-29T08:32:10.484Z,50.08
2019-05-29T08:33:10.503Z,48.21
2019-05-29T08:34:10.536Z,45.78
2019-05-29T08:35:10.562Z,44.67
2019-05-29T08:36:10.582Z,43.32
2019-05-29T08:37:10.623Z,44.17
2019-05-29T08:38:10.637Z,44.45
2019-05-29T08:39:10.660Z,43.51
2019-05-29T08:40:10.687Z,42.21
2019-05-29T08:41:10.712Z,40.95
2019-05-29T08:42:25.451Z,41.07
2019-05-29T08:43:10.770Z,40.42
2019-05-29T08:44:10.801Z,41.14
2019-05-29T08:45:10.834Z,41.72
2019-05-29T08:47:13.392Z,38.97
2019-05-29T08:48:10.905Z,39.16
2019-05-29T08:49:10.932Z,38.31
2019-05-29T08:50:25.623Z,37.48
2019-05-29T08:51:10.989Z,36.34
2019-05-29T08:52:14.854Z,35.2
2019-05-29T08:53:11.049Z,35.23
2019-05-29T08:54:25.430Z,33.97
2019-05-29T08:55:13.775Z,33.7
2019-05-29T08:56:11.126Z,34.92
2019-05-29T08:57:11.160Z,34.17
2019-05-29T08:58:11.247Z,34.63
2019-05-29T08:59:11.212Z,37.08
2019-05-29T09:00:11.244Z,40.55
2019-05-29T09:01:11.271Z,41.86
2019-05-29T09:02:11.301Z,43.76
2019-05-29T09:03:11.332Z,43.85
2019-05-29T09:05:11.380Z,44.12
2019-05-29T09:06:26.079Z,44.96
2019-05-29T09:07:11.436Z,45.71
2019-05-29T09:08:11.463Z,45.81
2019-05-29T09:09:11.490Z,47.03
2019-05-29T09:11:11.543Z,45.98
2019-05-29T09:12:11.581Z,44.77
2019-05-29T09:13:11.615Z,43.04
2019-05-29T09:14:11.620Z,43.35
2019-05-29T09:15:12.223Z,42.8
2019-05-29T09:16:11.676Z,42.47
2019-05-29T09:17:12.001Z,39.14
2019-05-29T09:18:11.476Z,39.62
2019-05-29T09:20:57.690Z,37.73
2019-05-29T09:21:12.461Z,37.65
2019-05-29T09:22:12.105Z,37.27
2019-05-29T09:23:12.710Z,38.49
2019-05-29T09:25:26.799Z,39.03
2019-05-29T09:26:22.212Z,40.45
2019-05-29T09:27:12.730Z,40.39
2019-05-29T09:28:13.994Z,37.52
2019-05-29T09:29:15.543Z,36.87
2019-05-29T09:30:13.839Z,37.62
2019-05-29T09:31:14.932Z,38.45
2019-05-29T09:32:13.451Z,38.08
2019-05-29T09:33:15.171Z,38.46
2019-05-29T09:34:12.130Z,38.45
2019-05-29T09:35:12.419Z,39.83
2019-05-29T09:36:12.428Z,41.26
2019-05-29T09:37:12.489Z,41.35
2019-05-29T09:39:12.510Z,41.62
2019-05-29T09:40:12.533Z,42.76
2019-05-29T09:41:27.225Z,44.27
2019-05-29T09:42:12.588Z,43.88
2019-05-29T09:43:12.620Z,43.98
2019-05-29T09:44:38.205Z,45.04
2019-05-29T09:45:12.664Z,45.95
2019-05-29T09:46:12.700Z,47.08
2019-05-29T09:47:12.716Z,47.27
2019-05-29T09:50:12.793Z,41.28
2019-05-29T09:51:23.474Z,40.63
2019-05-29T09:52:12.841Z,40.7
2019-05-29T09:53:12.878Z,41.55
2019-05-29T09:54:13.034Z,42.2
2019-05-29T09:55:12.920Z,43.04
2019-05-29T09:56:27.610Z,43.04
2019-05-29T09:57:15.300Z,43.07
2019-05-29T09:58:12.996Z,41.74
2019-05-29T09:59:13.021Z,39.11
2019-05-29T10:00:13.050Z,38.45
2019-05-29T10:01:26.023Z,37.81
2019-05-29T10:02:13.103Z,38.7
2019-05-29T10:03:13.174Z,37.27
2019-05-29T10:04:13.152Z,35.66
2019-05-29T10:05:13.178Z,34.42
2019-05-29T10:06:13.210Z,34.62
2019-05-29T10:07:13.247Z,35.39
2019-05-29T10:08:16.282Z,35.64
2019-05-29T10:10:13.057Z,36.46
2019-05-29T10:11:13.852Z,37.95
2019-05-29T10:12:13.377Z,35.95
2019-05-29T10:13:13.383Z,35.74
2019-05-29T10:14:13.410Z,37.15
2019-05-29T10:15:13.434Z,38.83
2019-05-29T10:16:13.224Z,39.93
2019-05-29T10:18:33.780Z,41.5
2019-05-29T10:19:13.555Z,42.27
2019-05-29T10:21:13.594Z,40.31
2019-05-29T10:22:13.615Z,40.97
2019-05-29T10:23:13.640Z,40.05
2019-05-29T10:24:13.689Z,38.91
2019-05-29T10:25:13.789Z,39.41
2019-05-29T10:26:13.717Z,38.72
2019-05-29T10:27:13.743Z,39.01
2019-05-29T10:28:38.635Z,39.12
2019-05-29T10:31:10.596Z,40.94
2019-05-29T10:32:10.621Z,41.08
2019-05-29T10:33:10.643Z,40.81
2019-05-29T10:34:25.337Z,40.55
2019-05-29T10:35:10.695Z,40.09
2019-05-29T10:36:10.725Z,39.89
2019-05-29T10:37:10.755Z,39.87
2019-05-29T10:38:10.772Z,40.63
2019-05-29T10:39:12.865Z,40.26
2019-05-29T10:40:10.827Z,41.3
2019-05-29T10:41:10.849Z,40.84
2019-05-29T10:42:10.875Z,40.55
2019-05-29T10:43:10.907Z,39.2
2019-05-29T10:44:14.933Z,39.95
2019-05-29T10:46:10.985Z,39.74
2019-05-29T10:47:11.003Z,40.7
2019-05-29T10:48:11.114Z,39.64
2019-05-29T10:49:11.070Z,39.36
2019-05-29T10:50:25.743Z,40.53
2019-05-29T10:51:11.112Z,40.03
2019-05-29T10:52:18.673Z,40.03
2019-05-29T10:53:11.162Z,39.18
2019-05-29T10:54:11.184Z,39.74
2019-05-29T10:55:11.207Z,40.61
2019-05-29T10:56:11.231Z,41.28
2019-05-29T10:57:11.265Z,41.47
2019-05-29T10:58:11.288Z,40.97
2019-05-29T10:59:11.309Z,41.93
2019-05-29T11:00:11.342Z,42.2
2019-05-29T11:01:11.373Z,43.4
2019-05-29T11:02:11.386Z,44.24
2019-05-29T11:03:11.413Z,45
2019-05-29T11:04:11.440Z,46.14
2019-05-29T11:05:11.462Z,45.37
2019-05-29T11:06:26.154Z,45.86
2019-05-29T11:07:11.538Z,45.11
2019-05-29T11:08:11.536Z,44.37
2019-05-29T11:09:11.559Z,43.71
2019-05-29T11:10:15.664Z,43.26
2019-05-29T11:11:11.613Z,43.04
2019-05-29T11:12:11.634Z,44.37
2019-05-29T11:13:11.663Z,43.52
2019-05-29T11:14:11.705Z,41.53
2019-05-29T11:15:23.258Z,43.04
2019-05-29T11:16:11.729Z,44.38
2019-05-29T11:17:11.767Z,44.89
2019-05-29T11:18:11.781Z,42.14
2019-05-29T11:19:11.804Z,42.53
2019-05-29T11:20:11.837Z,42.14
2019-05-29T11:21:26.519Z,42.22
2019-05-29T11:22:27.612Z,43.48
2019-05-29T11:23:11.903Z,43.57
2019-05-29T11:24:11.931Z,44.7
2019-05-29T11:25:27.652Z,44.9
2019-05-29T11:26:12.000Z,46.05
2019-05-29T11:27:11.999Z,45.9
2019-05-29T11:29:12.049Z,43.79
2019-05-29T11:30:12.088Z,43.98
2019-05-29T11:31:11.849Z,43.96
2019-05-29T11:32:12.161Z,44.32
2019-05-29T11:33:12.155Z,44.9
2019-05-29T11:34:12.174Z,44.51
2019-05-29T11:35:12.195Z,45.28
2019-05-29T11:36:15.946Z,44.73
2019-05-29T11:37:12.242Z,44.54
2019-05-29T11:38:12.271Z,43.79
2019-05-29T11:39:12.306Z,43.5
2019-05-29T11:40:12.322Z,43.88
2019-05-29T11:41:27.487Z,43.43
2019-05-29T11:43:12.397Z,44.17
2019-05-29T11:44:12.413Z,44.37
2019-05-29T11:45:12.448Z,43.88
2019-05-29T11:46:12.469Z,44.82
2019-05-29T11:47:12.490Z,44.82
2019-05-29T11:48:12.530Z,44.82
2019-05-29T11:49:12.543Z,44.27
2019-05-29T11:50:21.902Z,43.91
2019-05-29T11:51:12.583Z,43.23
2019-05-29T11:52:39.769Z,42.76
2019-05-29T11:53:27.291Z,43.04
2019-05-29T11:54:12.660Z,43.04
2019-05-29T11:55:12.712Z,43.43
2019-05-29T11:56:12.700Z,42.3
2019-05-29T11:57:12.731Z,41.83
2019-05-29T11:58:28.078Z,41.18
2019-05-29T11:59:12.803Z,42.03
2019-05-29T12:00:22.447Z,40.78
2019-05-29T12:01:12.920Z,40.68
2019-05-29T12:02:12.865Z,40.78
2019-05-29T12:03:12.868Z,40.88
2019-05-29T12:04:27.761Z,40.78
2019-05-29T12:06:12.952Z,40.97
2019-05-29T12:07:12.972Z,40.61
2019-05-29T12:08:12.993Z,40.31
2019-05-29T12:09:32.485Z,40.8
2019-05-29T12:10:13.270Z,40.51
2019-05-29T12:11:13.061Z,40.12
2019-05-29T12:13:13.110Z,41.51
2019-05-29T12:14:13.138Z,40.94
2019-05-29T12:15:18.912Z,39.41
2019-05-29T12:16:13.181Z,40.05
2019-05-29T12:17:13.207Z,39.29
2019-05-29T12:18:25.467Z,39.11
2019-05-29T12:19:13.259Z,39.83
2019-05-29T12:20:29.947Z,41.45
2019-05-29T12:21:13.307Z,41.91
2019-05-29T12:22:13.333Z,41.33
2019-05-29T12:23:28.139Z,42.08
2019-05-29T12:24:13.377Z,42.35
2019-05-29T12:25:28.065Z,43.02
2019-05-29T12:26:24.218Z,43.12
2019-05-29T12:27:13.453Z,43.4
2019-05-29T12:28:13.486Z,43.14
2019-05-29T12:29:14.479Z,42.37
2019-05-29T12:30:13.547Z,42.94
2019-05-29T12:31:13.555Z,42.27
2019-05-29T12:32:14.982Z,41.6
2019-05-29T12:33:13.595Z,41.02
2019-05-29T12:34:21.497Z,41.39
2019-05-29T12:35:13.642Z,41.89
2019-05-29T12:36:13.664Z,41.41
2019-05-29T12:38:13.715Z,42.27
2019-05-29T12:39:13.507Z,41.5
2019-05-29T12:40:13.876Z,41.33
2019-05-29T12:41:28.451Z,41.05
2019-05-29T12:43:29.172Z,42.18
2019-05-29T12:44:13.867Z,42.85
2019-05-29T12:45:13.883Z,43.23
2019-05-29T12:46:13.940Z,42.3
2019-05-29T12:47:13.932Z,43.08
2019-05-29T12:48:17.359Z,40.99
2019-05-29T12:49:13.978Z,40.58
2019-05-29T12:50:14.003Z,40.97
2019-05-29T12:51:14.076Z,40.41
2019-05-29T12:52:14.095Z,40.3
2019-05-29T12:53:31.528Z,40.2
2019-05-29T12:54:14.115Z,40.78
2019-05-29T12:55:14.122Z,40.88
2019-05-29T12:56:28.821Z,40.11
2019-05-29T12:57:14.171Z,40.2
2019-05-29T12:58:14.195Z,40.39
2019-05-29T12:59:14.219Z,41.08
2019-05-29T13:00:14.242Z,41.28
2019-05-29T13:01:14.284Z,40.22
2019-05-29T13:02:14.296Z,39.74
2019-05-29T13:03:14.320Z,40.58
2019-05-29T13:04:14.342Z,40.78
2019-05-29T13:05:21.140Z,40.66
2019-05-29T13:06:14.385Z,41.05
2019-05-29T13:07:14.411Z,41.72
2019-05-29T13:08:14.436Z,41.91
2019-05-29T13:09:14.460Z,42.3
2019-05-29T13:10:31.828Z,41.35
2019-05-29T13:11:14.508Z,41.26
2019-05-29T13:12:14.530Z,40.76
2019-05-29T13:13:14.555Z,41.53
2019-05-29T13:14:14.583Z,41.24
2019-05-29T13:15:14.643Z,42.18
2019-05-29T13:16:14.630Z,43.14
2019-05-29T13:17:14.658Z,41.91
2019-05-29T13:18:14.677Z,40.85
2019-05-29T13:19:14.699Z,41.05
2019-05-29T13:21:14.746Z,40.88
2019-05-29T13:22:14.773Z,40.78
2019-05-29T13:23:14.821Z,42.41
2019-05-29T13:24:14.578Z,40.7
2019-05-29T13:25:14.844Z,40.58
2019-05-29T13:26:14.868Z,41.91
2019-05-29T13:27:14.909Z,42.2
2019-05-29T13:28:29.579Z,43.12
2019-05-29T13:29:14.943Z,44.08
2019-05-29T13:30:14.993Z,44.17
2019-05-29T13:31:14.986Z,44.37
2019-05-29T13:32:15.058Z,45.32
2019-05-29T13:33:15.058Z,44.94
2019-05-29T13:34:15.072Z,43.14
2019-05-29T13:35:15.095Z,43.43
2019-05-29T13:37:15.128Z,42.73
2019-05-29T13:38:15.151Z,43.5
2019-05-29T13:39:15.206Z,43.6
2019-05-29T13:40:15.204Z,43.79
2019-05-29T13:41:15.225Z,43.88
2019-05-29T13:42:15.249Z,43.43
2019-05-29T13:43:18.181Z,43.23
2019-05-29T13:44:29.959Z,42.47
2019-05-29T13:45:20.951Z,43.04
2019-05-29T13:46:15.345Z,43.33
2019-05-29T13:47:15.402Z,42.39